SBGR/GRU METAR and TAF weather

Enter ICAO airport designator
Station Type Date Time Source
SBGR METAR 2019/12/08 17:00 UTC NOAA

SBGR 081700Z 10006KT CAVOK 28/13 Q1015


Station Type Date Time Source
SBGR Decoded METAR 2019/12/08 17:00 UTC NOAA

Guarulhos Civ / Mil , Brazil (SBGR) 23-26S 046-28W
Dec 08, 2019 - 12:00 PM EST / 2019.12.08 1700 UTC
Wind: from the E (100 degrees) at 7 MPH (6 KT):0
Visibility: greater than 7 mile(s):0
Temperature: 82 F (28 C)
Dew Point: 55 F (13 C)
Relative Humidity: 39%
Pressure (altimeter): 29.97 in. Hg (1015 hPa)
ob: SBGR 081700Z 10006KT CAVOK 28/13 Q1015
cycle: 17

Station Type Date Time Source
SBGR TAF 2019/12/08 18:35 UTC NOAA

TAF SBGR 081600Z 0818/0924 07005KT CAVOK TN15/0908Z TX29/0917Z PROB30 0821/0823 14005KT PROB30 0909/0911 BKN009
BECMG 0912/0914 FEW020
BECMG 0915/0917 SCT035
TEMPO 0919/0922 14007KT 6000 BKN013
RMK PGD

Example: see airport list